Time;durP1;ratioP1;P1;durP2;ratioP2;P2;SDS_P1;SDS_P2;PMS_P1;PMS_P2;Temp;Humidity;BMP_temperature;BMP_pressure;BME280_temperature;BME280_humidity;BME280_pressure;Samples;Min_cycle;Max_cycle;Signal;HPM_P1;HPM_P2
2023/04/19 00:00:31;;;;;;;51.60;45.98;;;30.70;76.50;;;;;;1902930;75;21556;-82
2023/04/19 00:03:03;;;;;;;53.38;46.13;;;30.70;76.50;;;;;;1904976;75;21148;-84
2023/04/19 00:05:34;;;;;;;51.33;45.78;;;30.70;76.60;;;;;;1900366;75;21072;-83
2023/04/19 00:08:06;;;;;;;52.43;46.48;;;30.70;76.30;;;;;;1897664;75;21237;-83
2023/04/19 00:10:38;;;;;;;51.40;45.78;;;30.80;76.70;;;;;;1906851;75;21057;-83
2023/04/19 00:13:09;;;;;;;54.80;45.17;;;30.70;76.40;;;;;;1980154;72;21373;-84
2023/04/19 00:15:41;;;;;;;53.45;47.30;;;30.80;75.00;;;;;;1890681;75;21169;-83
2023/04/19 00:18:12;;;;;;;49.35;43.85;;;30.80;75.70;;;;;;1891464;75;21203;-82
2023/04/19 00:20:43;;;;;;;49.03;43.70;;;30.80;74.90;;;;;;1909408;75;21082;-83
2023/04/19 00:23:14;;;;;;;49.85;44.45;;;30.80;75.70;;;;;;1901330;75;21070;-83
2023/04/19 00:25:46;;;;;;;47.88;42.75;;;30.80;75.70;;;;;;1911569;75;21672;-82
2023/04/19 00:28:18;;;;;;;56.90;43.73;;;30.90;75.10;;;;;;1895682;74;21118;-82
2023/04/19 00:30:49;;;;;;;52.17;43.73;;;30.90;75.20;;;;;;1877191;75;22175;-83
2023/04/19 00:33:20;;;;;;;46.92;41.77;;;30.90;74.40;;;;;;1892415;75;21115;-83
2023/04/19 00:35:51;;;;;;;50.03;43.15;;;31.00;74.20;;;;;;1915032;74;21100;-73
2023/04/19 00:38:22;;;;;;;48.55;43.40;;;31.00;74.60;;;;;;1927062;74;21187;-72
2023/04/19 00:40:53;;;;;;;48.17;41.75;;;31.00;74.30;;;;;;1927789;74;21209;-72
2023/04/19 00:43:25;;;;;;;47.93;42.23;;;31.00;74.20;;;;;;1878075;76;21138;-72
2023/04/19 00:45:56;;;;;;;47.03;41.92;;;31.10;73.90;;;;;;1913025;75;21161;-73
2023/04/19 00:48:27;;;;;;;45.92;41.02;;;31.10;72.90;;;;;;1930270;74;21245;-73
2023/04/19 00:50:59;;;;;;;49.60;41.33;;;31.10;72.70;;;;;;1893369;76;21578;-73
2023/04/19 00:53:30;;;;;;;48.28;40.38;;;31.20;72.60;;;;;;1877884;74;21094;-73
2023/04/19 00:56:03;;;;;;;53.70;40.55;;;31.20;72.60;;;;;;1901228;74;21098;-73
2023/04/19 00:58:35;;;;;;;44.40;38.08;;;31.20;72.40;;;;;;1894576;75;21178;-74
2023/04/19 01:01:06;;;;;;;48.13;38.28;;;31.20;72.20;;;;;;1925446;73;21084;-72
2023/04/19 01:03:38;;;;;;;45.92;38.13;;;31.20;71.60;;;;;;1927787;74;21106;-74
2023/04/19 01:06:09;;;;;;;41.23;35.33;;;31.40;71.10;;;;;;1893317;75;21127;-73
2023/04/19 01:08:41;;;;;;;43.73;35.68;;;31.40;70.30;;;;;;1875098;75;21205;-73
2023/04/19 01:11:12;;;;;;;42.38;35.15;;;31.40;70.90;;;;;;1900047;75;21104;-74
2023/04/19 01:13:44;;;;;;;41.40;35.23;;;31.50;69.80;;;;;;1871478;76;21246;-73
2023/04/19 01:16:15;;;;;;;43.13;34.65;;;31.60;69.20;;;;;;1890609;75;21585;-73
2023/04/19 01:18:46;;;;;;;54.15;33.78;;;31.60;68.50;;;;;;1913292;73;21206;-75
2023/04/19 01:21:17;;;;;;;49.73;34.67;;;31.70;68.20;;;;;;1873438;75;21590;-75
2023/04/19 01:23:49;;;;;;;37.58;32.03;;;31.70;67.90;;;;;;1911151;75;21068;-75
2023/04/19 01:26:20;;;;;;;51.28;33.50;;;31.80;67.60;;;;;;1910937;75;21108;-73
2023/04/19 01:28:52;;;;;;;34.88;31.15;;;31.90;67.70;;;;;;1900718;75;21121;-73
2023/04/19 01:34:15;;;;;;;40.70;30.55;;;32.00;65.60;;;;;;1846814;77;21162;-74
2023/04/19 01:36:46;;;;;;;39.73;28.90;;;32.10;65.40;;;;;;1854010;76;21154;-74
2023/04/19 01:39:17;;;;;;;33.45;28.80;;;32.20;64.90;;;;;;1834901;77;21293;-74
2023/04/19 01:41:48;;;;;;;32.05;28.60;;;32.20;65.00;;;;;;1838532;76;21165;-74
2023/04/19 01:44:19;;;;;;;36.45;29.70;;;32.30;64.50;;;;;;1833155;77;21574;-72
2023/04/19 01:46:51;;;;;;;33.98;30.30;;;32.30;63.90;;;;;;1843917;76;21192;-74
2023/04/19 01:49:22;;;;;;;31.82;27.30;;;32.40;64.40;;;;;;1847633;77;21205;-74
2023/04/19 01:51:53;;;;;;;35.85;28.92;;;32.40;63.80;;;;;;1847975;77;21123;-75
2023/04/19 01:54:25;;;;;;;37.50;28.35;;;32.60;62.90;;;;;;1852253;76;21190;-75
2023/04/19 01:56:57;;;;;;;37.03;26.73;;;32.60;63.00;;;;;;1849221;76;21127;-74
2023/04/19 01:59:28;;;;;;;38.30;27.73;;;32.70;61.60;;;;;;1843908;76;21283;-73
2023/04/19 02:01:59;;;;;;;38.42;28.02;;;32.80;61.80;;;;;;1844363;77;21181;-74
2023/04/19 02:04:32;;;;;;;35.10;26.95;;;32.90;60.70;;;;;;1849040;76;21593;-74
2023/04/19 02:07:08;;;;;;;31.07;26.60;;;33.00;60.70;;;;;;1850309;76;21195;-74
2023/04/19 02:09:39;;;;;;;36.90;27.42;;;33.10;60.40;;;;;;1843433;77;21133;-74
2023/04/19 02:12:11;;;;;;;36.77;26.85;;;33.10;60.00;;;;;;1836590;76;21086;-74
2023/04/19 02:14:42;;;;;;;40.15;28.42;;;33.20;59.40;;;;;;1843960;77;21185;-75
2023/04/19 02:17:13;;;;;;;36.10;28.00;;;33.30;59.70;;;;;;1848509;76;21218;-75
2023/04/19 02:19:45;;;;;;;32.50;28.40;;;33.30;59.50;;;;;;1846459;76;21608;-75
2023/04/19 02:22:16;;;;;;;31.97;27.02;;;33.40;59.30;;;;;;1852949;76;21132;-74
2023/04/19 02:24:47;;;;;;;38.48;27.95;;;33.50;59.80;;;;;;1847497;77;21138;-75
2023/04/19 02:27:19;;;;;;;41.28;29.50;;;33.60;59.50;;;;;;1850403;76;21696;-75
2023/04/19 02:29:50;;;;;;;39.18;27.82;;;33.70;59.40;;;;;;1846710;76;21122;-75
2023/04/19 02:32:21;;;;;;;35.80;29.15;;;33.80;58.90;;;;;;1849217;76;21162;-75
2023/04/19 02:34:53;;;;;;;38.45;30.37;;;33.90;59.10;;;;;;1872886;75;21176;-74
2023/04/19 02:37:24;;;;;;;36.68;29.75;;;34.10;59.10;;;;;;1869723;75;21517;-76
2023/04/19 02:39:55;;;;;;;31.87;28.65;;;34.20;58.70;;;;;;1884721;75;21448;-75
2023/04/19 02:42:27;;;;;;;39.15;29.98;;;34.30;58.50;;;;;;1875705;75;21116;-74
2023/04/19 02:44:58;;;;;;;32.73;29.15;;;34.30;58.30;;;;;;1864649;75;21224;-76
2023/04/19 02:47:29;;;;;;;33.30;29.00;;;34.40;57.70;;;;;;1869449;77;21176;-74
2023/04/19 02:50:00;;;;;;;39.23;30.43;;;34.50;58.20;;;;;;1869662;75;21149;-75
2023/04/19 02:52:32;;;;;;;34.58;29.92;;;34.60;58.10;;;;;;1870211;75;21121;-76
2023/04/19 02:55:03;;;;;;;37.15;30.02;;;34.70;57.70;;;;;;1869763;75;21101;-76
2023/04/19 02:57:34;;;;;;;34.48;29.07;;;34.80;57.40;;;;;;1873138;75;21180;-73
2023/04/19 03:00:07;;;;;;;36.70;29.02;;;34.80;56.80;;;;;;1875839;75;21238;-75
2023/04/19 03:02:38;;;;;;;34.25;29.90;;;34.90;57.30;;;;;;1877483;75;21102;-74
2023/04/19 03:05:10;;;;;;;32.50;29.00;;;35.00;56.90;;;;;;1875477;75;21238;-74
2023/04/19 03:07:41;;;;;;;34.73;30.57;;;35.10;57.40;;;;;;1882609;75;21215;-76
2023/04/19 03:10:14;;;;;;;34.38;30.65;;;35.10;56.40;;;;;;1872821;75;21623;-75
2023/04/19 03:12:45;;;;;;;33.78;30.02;;;35.20;57.00;;;;;;1838506;77;21117;-73
2023/04/19 03:15:16;;;;;;;33.88;30.37;;;35.30;56.30;;;;;;1847720;77;21074;-75
2023/04/19 03:17:47;;;;;;;38.13;30.27;;;35.30;56.20;;;;;;1805440;78;21097;-76
2023/04/19 03:20:19;;;;;;;34.33;30.57;;;35.40;56.50;;;;;;1811713;78;21133;-74
2023/04/19 03:22:52;;;;;;;33.63;30.15;;;35.40;56.10;;;;;;1826665;78;21118;-75
2023/04/19 03:25:24;;;;;;;33.58;30.17;;;35.50;56.00;;;;;;1862836;75;21102;-74
2023/04/19 03:27:56;;;;;;;35.45;30.50;;;35.50;55.80;;;;;;1870175;77;21145;-73
2023/04/19 03:30:28;;;;;;;39.85;31.07;;;35.60;55.80;;;;;;1875616;75;21192;-74
2023/04/19 03:32:59;;;;;;;41.85;30.68;;;35.70;55.20;;;;;;1879502;75;21678;-74
2023/04/19 03:35:31;;;;;;;35.03;30.30;;;35.80;55.00;;;;;;1880802;75;21727;-75
2023/04/19 03:38:02;;;;;;;45.98;32.30;;;35.80;55.10;;;;;;1878666;75;21600;-76
2023/04/19 03:40:38;;;;;;;47.15;32.67;;;35.90;54.40;;;;;;1874940;75;21173;-74
2023/04/19 03:43:09;;;;;;;38.10;33.83;;;36.00;54.50;;;;;;1874700;75;21161;-74
2023/04/19 03:45:40;;;;;;;37.38;33.53;;;36.00;54.50;;;;;;1880431;75;21211;-75
2023/04/19 03:48:12;;;;;;;35.98;31.87;;;36.10;54.10;;;;;;1872795;75;21078;-76
2023/04/19 03:50:43;;;;;;;48.20;32.78;;;36.10;54.40;;;;;;1811283;78;21554;-73
2023/04/19 03:53:14;;;;;;;38.28;31.97;;;36.10;54.30;;;;;;1843972;77;21153;-76
2023/04/19 03:55:46;;;;;;;59.90;35.08;;;36.20;54.40;;;;;;1843137;77;21153;-74
2023/04/19 03:58:24;;;;;;;39.35;31.10;;;36.20;54.50;;;;;;1808269;78;21554;-73
2023/04/19 04:00:55;;;;;;;36.48;32.60;;;36.20;54.20;;;;;;1840169;77;21149;-73
2023/04/19 04:03:26;;;;;;;38.13;32.30;;;36.30;53.70;;;;;;1838567;77;21188;-74
2023/04/19 04:05:58;;;;;;;36.15;32.15;;;36.40;53.90;;;;;;1811675;78;21188;-73
2023/04/19 04:08:29;;;;;;;39.80;32.73;;;36.40;53.80;;;;;;1874866;75;22120;-73
2023/04/19 04:11:01;;;;;;;40.23;32.40;;;36.50;53.70;;;;;;1877409;75;21651;-73
2023/04/19 04:13:33;;;;;;;41.00;33.83;;;36.60;53.10;;;;;;1867266;77;21283;-73
2023/04/19 04:16:04;;;;;;;43.02;33.18;;;36.70;52.80;;;;;;1831665;78;21089;-77
2023/04/19 04:18:35;;;;;;;51.08;37.65;;;36.80;53.00;;;;;;1825571;77;21122;-76
2023/04/19 04:21:06;;;;;;;64.05;35.58;;;36.80;53.10;;;;;;1863503;75;21645;-73
2023/04/19 04:23:38;;;;;;;46.95;33.18;;;37.00;52.50;;;;;;1872627;75;21157;-75
2023/04/19 04:26:09;;;;;;;38.33;32.73;;;37.00;52.40;;;;;;1867347;77;21750;-75
2023/04/19 04:28:41;;;;;;;36.25;32.33;;;37.10;52.40;;;;;;1831353;77;21134;-74
2023/04/19 04:31:12;;;;;;;44.50;36.38;;;37.10;51.80;;;;;;1832520;78;21146;-75
2023/04/19 04:33:44;;;;;;;39.67;31.97;;;37.10;52.20;;;;;;1798466;78;21239;-75
2023/04/19 04:36:15;;;;;;;37.15;30.82;;;37.10;52.30;;;;;;1863006;77;21135;-73
2023/04/19 04:38:47;;;;;;;37.95;31.45;;;37.10;52.10;;;;;;1869612;77;21284;-73
2023/04/19 04:41:19;;;;;;;41.75;33.63;;;37.20;51.70;;;;;;1873346;75;21192;-74
2023/04/19 04:43:52;;;;;;;39.08;32.78;;;37.30;51.50;;;;;;1869690;75;21705;-74
2023/04/19 04:46:24;;;;;;;34.27;30.30;;;37.30;51.10;;;;;;1855436;77;21124;-72
2023/04/19 04:48:56;;;;;;;35.13;30.25;;;37.30;51.90;;;;;;1870675;77;21136;-73
2023/04/19 04:51:27;;;;;;;39.90;35.58;;;37.40;51.50;;;;;;1861109;75;21103;-73
2023/04/19 04:53:58;;;;;;;37.13;32.20;;;37.40;51.40;;;;;;1870361;77;21207;-73
2023/04/19 04:56:29;;;;;;;37.53;32.75;;;37.40;50.30;;;;;;1870094;76;21580;-74
2023/04/19 04:59:01;;;;;;;45.25;36.13;;;37.50;50.10;;;;;;1865734;77;21243;-77
2023/04/19 05:01:32;;;;;;;39.38;32.15;;;37.50;51.10;;;;;;1865437;77;21156;-76
2023/04/19 05:04:04;;;;;;;35.35;31.50;;;37.60;50.00;;;;;;1868876;77;21157;-74
2023/04/19 05:06:35;;;;;;;37.08;32.33;;;37.60;49.60;;;;;;1865367;77;21142;-75
2023/04/19 05:09:06;;;;;;;35.83;31.65;;;37.70;49.80;;;;;;1864574;75;21137;-75
2023/04/19 05:11:38;;;;;;;38.75;33.13;;;37.70;49.20;;;;;;1854926;75;21189;-76
2023/04/19 05:14:09;;;;;;;35.43;31.85;;;37.70;49.90;;;;;;1866215;75;21157;-75
2023/04/19 05:16:41;;;;;;;39.73;31.30;;;37.70;49.40;;;;;;1870101;75;21170;-75
2023/04/19 05:19:12;;;;;;;34.70;31.25;;;37.70;49.60;;;;;;1881182;75;21160;-74
2023/04/19 05:21:43;;;;;;;37.08;31.60;;;37.70;49.20;;;;;;1870682;75;21641;-76
2023/04/19 05:24:15;;;;;;;34.65;31.10;;;37.80;49.80;;;;;;1865434;75;21609;-74
2023/04/19 05:26:47;;;;;;;36.03;32.48;;;37.90;49.10;;;;;;1870579;77;21544;-74
2023/04/19 05:29:18;;;;;;;34.10;30.52;;;37.90;48.10;;;;;;1830874;77;21131;-75
2023/04/19 05:31:49;;;;;;;35.17;31.40;;;38.00;49.80;;;;;;1824137;77;21165;-75
2023/04/19 05:34:21;;;;;;;37.60;31.10;;;38.00;49.20;;;;;;1865120;75;21640;-75
2023/04/19 05:36:52;;;;;;;35.58;32.08;;;38.10;48.90;;;;;;1856654;76;21296;-75
2023/04/19 05:39:23;;;;;;;39.03;30.97;;;38.10;48.70;;;;;;1819883;77;21137;-74
2023/04/19 05:41:54;;;;;;;36.28;30.23;;;38.20;48.00;;;;;;1858332;76;21227;-75
2023/04/19 05:44:26;;;;;;;35.20;30.12;;;38.20;48.80;;;;;;1839599;77;21148;-77
2023/04/19 05:46:57;;;;;;;34.48;30.90;;;38.30;48.30;;;;;;1851943;76;21054;-76
2023/04/19 05:49:28;;;;;;;38.98;33.35;;;38.40;48.60;;;;;;1872456;76;21172;-73
2023/04/19 05:51:59;;;;;;;35.03;31.50;;;;;;;;;;1868269;76;21110;-75
2023/04/19 05:54:34;;;;;;;36.08;31.85;;;38.40;47.70;;;;;;1850707;76;21662;-76
2023/04/19 05:57:03;;;;;;;37.23;31.30;;;38.40;48.80;;;;;;1857318;76;21668;-76
2023/04/19 05:59:34;;;;;;;35.17;31.52;;;38.50;48.50;;;;;;1845981;76;21234;-77
2023/04/19 06:02:05;;;;;;;36.35;32.08;;;38.50;47.20;;;;;;1862052;76;21070;-77
2023/04/19 06:04:37;;;;;;;34.85;31.20;;;38.50;47.20;;;;;;1870435;76;21153;-77
2023/04/19 06:07:09;;;;;;;37.63;30.90;;;38.60;47.50;;;;;;1846479;76;21232;-78
2023/04/19 06:09:41;;;;;;;34.20;30.65;;;38.60;47.90;;;;;;1847828;76;21640;-75
2023/04/19 06:12:13;;;;;;;49.83;33.70;;;38.60;47.10;;;;;;1861106;77;21173;-78
2023/04/19 06:14:44;;;;;;;33.42;30.12;;;38.50;47.30;;;;;;1860550;76;21185;-78
2023/04/19 06:17:16;;;;;;;35.90;30.65;;;38.60;47.50;;;;;;1848083;76;21688;-76
2023/04/19 06:19:47;;;;;;;38.83;34.58;;;38.50;47.90;;;;;;1851336;76;21117;-75
2023/04/19 06:22:18;;;;;;;36.77;32.35;;;38.60;47.20;;;;;;1837186;76;21211;-75
2023/04/19 06:24:49;;;;;;;34.75;30.97;;;38.60;47.50;;;;;;1860320;76;21692;-74
2023/04/19 06:27:21;;;;;;;33.58;29.92;;;38.60;47.40;;;;;;1858057;76;21164;-75
2023/04/19 06:29:53;;;;;;;39.85;31.33;;;38.70;46.40;;;;;;1820042;77;21732;-74
2023/04/19 06:32:24;;;;;;;37.98;33.90;;;38.70;46.10;;;;;;1859652;76;21130;-75
2023/04/19 06:34:56;;;;;;;49.98;35.15;;;38.70;45.90;;;;;;1878696;76;21536;-74
2023/04/19 06:37:28;;;;;;;36.50;30.60;;;38.70;46.10;;;;;;1860797;76;21184;-76
2023/04/19 06:40:00;;;;;;;39.33;32.42;;;38.70;46.40;;;;;;1849510;76;21203;-75
2023/04/19 06:42:31;;;;;;;40.98;31.77;;;38.70;46.20;;;;;;1860072;77;21197;-75
2023/04/19 06:45:02;;;;;;;45.20;33.42;;;38.70;46.50;;;;;;1852572;76;21134;-75
2023/04/19 06:47:34;;;;;;;44.18;31.85;;;38.70;46.50;;;;;;1833955;77;21562;-76
2023/04/19 06:50:07;;;;;;;33.98;30.40;;;38.80;47.40;;;;;;1878665;76;21221;-76
2023/04/19 06:52:38;;;;;;;38.25;30.70;;;38.70;47.40;;;;;;1876116;76;21117;-75
2023/04/19 06:55:10;;;;;;;34.35;30.68;;;38.70;47.30;;;;;;1874983;76;21121;-74
2023/04/19 06:57:42;;;;;;;42.30;33.50;;;38.70;47.80;;;;;;1867152;76;21083;-73
2023/04/19 07:00:14;;;;;;;42.30;32.60;;;38.70;48.20;;;;;;1875865;75;21207;-76
2023/04/19 07:02:46;;;;;;;43.48;31.85;;;38.70;48.20;;;;;;1861620;76;21117;-75
2023/04/19 07:05:17;;;;;;;37.45;31.95;;;38.70;47.30;;;;;;1863740;76;21215;-75
2023/04/19 07:07:49;;;;;;;41.20;30.80;;;38.80;46.00;;;;;;1858555;76;21232;-75
2023/04/19 07:10:20;;;;;;;41.63;33.00;;;38.80;46.70;;;;;;1853503;76;21097;-76
2023/04/19 07:12:52;;;;;;;34.43;30.75;;;38.80;47.20;;;;;;1843133;77;21275;-75
2023/04/19 07:15:23;;;;;;;36.98;31.50;;;38.80;47.10;;;;;;1852727;76;21184;-76
2023/04/19 07:17:54;;;;;;;37.90;32.28;;;38.70;47.00;;;;;;1857549;76;21200;-75
2023/04/19 07:20:26;;;;;;;47.30;33.78;;;38.70;47.60;;;;;;1860698;76;21885;-76
2023/04/19 07:23:00;;;;;;;35.90;32.03;;;38.70;48.00;;;;;;1830512;78;21244;-74
2023/04/19 07:25:31;;;;;;;36.90;33.00;;;38.70;47.50;;;;;;1848197;76;21102;-74
2023/04/19 07:28:03;;;;;;;36.40;32.33;;;38.60;47.90;;;;;;1866239;76;21142;-75
2023/04/19 07:30:36;;;;;;;36.83;32.90;;;38.60;47.90;;;;;;1856983;76;21665;-75
2023/04/19 07:33:07;;;;;;;46.98;34.10;;;38.60;47.90;;;;;;1856674;76;21133;-75
2023/04/19 07:35:40;;;;;;;41.77;33.88;;;38.70;48.50;;;;;;1860979;76;21183;-75
2023/04/19 07:38:12;;;;;;;39.75;35.30;;;38.70;48.50;;;;;;1854270;76;21133;-75
2023/04/19 07:40:44;;;;;;;46.13;37.00;;;38.70;48.50;;;;;;1855857;76;21136;-75
2023/04/19 07:43:15;;;;;;;48.13;37.78;;;38.70;48.40;;;;;;1855696;77;21632;-74
2023/04/19 07:45:47;;;;;;;45.30;34.18;;;38.70;48.20;;;;;;1856250;76;21671;-76
2023/04/19 07:48:18;;;;;;;49.13;35.15;;;38.80;47.90;;;;;;1859614;77;21573;-74
2023/04/19 07:50:50;;;;;;;37.80;33.73;;;38.80;48.60;;;;;;1859328;76;21113;-75
2023/04/19 07:53:22;;;;;;;43.17;35.23;;;38.80;48.40;;;;;;1861027;76;21597;-75
2023/04/19 07:55:53;;;;;;;38.60;34.50;;;38.80;48.50;;;;;;1854867;76;21604;-75
2023/04/19 07:58:25;;;;;;;46.85;37.25;;;38.80;48.50;;;;;;1872662;76;21133;-75
2023/04/19 08:00:57;;;;;;;41.30;35.08;;;38.70;48.30;;;;;;1859500;76;21138;-75
2023/04/19 08:03:28;;;;;;;37.93;33.73;;;38.60;48.60;;;;;;1857557;76;21612;-76
2023/04/19 08:06:01;;;;;;;57.03;36.33;;;38.50;48.90;;;;;;1855445;76;21751;-76
2023/04/19 08:08:32;;;;;;;45.52;35.20;;;38.40;49.10;;;;;;1852844;77;21521;-76
2023/04/19 08:11:05;;;;;;;38.63;34.27;;;38.30;49.20;;;;;;1789993;79;21178;-76
2023/04/19 08:13:36;;;;;;;38.33;34.35;;;38.30;49.30;;;;;;1862389;76;21146;-77
2023/04/19 08:16:09;;;;;;;70.00;38.95;;;38.30;49.50;;;;;;1861240;76;21110;-79
2023/04/19 08:18:43;;;;;;;56.28;36.42;;;38.20;49.50;;;;;;1861202;77;21141;-75
2023/04/19 08:21:14;;;;;;;44.93;35.98;;;38.20;49.20;;;;;;1864739;76;21237;-75
2023/04/19 08:23:45;;;;;;;40.35;36.25;;;38.20;49.40;;;;;;1876859;76;21654;-74
2023/04/19 08:26:17;;;;;;;46.02;36.15;;;38.30;49.60;;;;;;1870149;76;21065;-74
2023/04/19 08:28:51;;;;;;;41.28;35.95;;;38.30;49.50;;;;;;1871949;76;21133;-75
2023/04/19 08:31:22;;;;;;;38.98;34.88;;;38.30;49.70;;;;;;1869688;76;21553;-75
2023/04/19 08:33:54;;;;;;;41.40;36.77;;;38.40;49.40;;;;;;1845906;76;21116;-75
2023/04/19 08:36:28;;;;;;;46.48;36.65;;;38.30;49.70;;;;;;1856514;76;21517;-73
2023/04/19 08:38:59;;;;;;;40.92;35.00;;;38.30;49.50;;;;;;1848199;77;21605;-76
2023/04/19 08:41:32;;;;;;;39.78;35.65;;;38.30;49.50;;;;;;1848780;77;21658;-76
2023/04/19 08:44:23;;;;;;;40.70;36.45;;;38.20;49.70;;;;;;1849814;77;21742;-75
2023/04/19 08:46:58;;;;;;;39.03;35.03;;;38.20;49.90;;;;;;1815937;79;21212;-74
2023/04/19 08:49:31;;;;;;;40.60;35.98;;;38.20;49.90;;;;;;1856482;77;21589;-77
2023/04/19 08:52:03;;;;;;;41.95;35.52;;;38.20;49.70;;;;;;1859170;77;21177;-75
2023/04/19 08:54:36;;;;;;;41.92;37.25;;;38.20;49.30;;;;;;1780552;80;21641;-76
2023/04/19 08:57:08;;;;;;;39.38;35.38;;;38.20;49.10;;;;;;1854102;77;21071;-76
2023/04/19 08:59:40;;;;;;;43.42;35.83;;;38.10;49.00;;;;;;1850720;76;21168;-75
2023/04/19 09:02:12;;;;;;;40.28;35.60;;;38.10;49.10;;;;;;1858033;76;21077;-75
2023/04/19 09:04:44;;;;;;;40.12;35.28;;;38.10;48.80;;;;;;1774937;79;21151;-74
2023/04/19 09:07:28;;;;;;;41.53;36.20;;;38.10;49.40;;;;;;1833961;76;21133;-74
2023/04/19 09:10:08;;;;;;;45.10;36.80;;;38.10;48.40;;;;;;1859646;76;21153;-75
2023/04/19 09:12:40;;;;;;;41.77;36.38;;;38.10;49.10;;;;;;1782322;80;21136;-74
2023/04/19 09:15:12;;;;;;;52.27;37.63;;;38.10;49.00;;;;;;1856260;77;21196;-76
2023/04/19 09:17:43;;;;;;;40.85;36.45;;;38.10;48.60;;;;;;1835534;76;21683;-75
2023/04/19 09:20:15;;;;;;;38.63;34.60;;;38.10;48.70;;;;;;1787428;79;21210;-74
2023/04/19 09:22:49;;;;;;;42.67;37.63;;;38.00;47.70;;;;;;1867419;76;21622;-76
2023/04/19 09:25:27;;;;;;;41.28;35.25;;;38.00;48.20;;;;;;1829199;77;21204;-74
2023/04/19 09:28:15;;;;;;;57.05;41.90;;;38.00;47.40;;;;;;1806731;77;21121;-75
2023/04/19 09:30:47;;;;;;;48.08;39.13;;;38.00;48.40;;;;;;1843303;76;21627;-75
2023/04/19 09:33:43;;;;;;;43.05;37.88;;;38.00;48.30;;;;;;1856221;76;21585;-74
2023/04/19 09:36:10;;;;;;;47.38;40.15;;;38.00;48.20;;;;;;1858306;76;21125;-76
2023/04/19 09:38:52;;;;;;;54.70;40.00;;;37.90;48.40;;;;;;1769224;79;21087;-75
2023/04/19 09:41:23;;;;;;;56.20;40.63;;;38.00;48.50;;;;;;1812673;77;21658;-76
2023/04/19 09:43:56;;;;;;;70.70;39.63;;;37.90;48.10;;;;;;1790065;79;21119;-74
2023/04/19 09:46:34;;;;;;;46.70;37.75;;;37.90;48.10;;;;;;1822588;77;21639;-74
2023/04/19 09:49:18;;;;;;;46.40;36.17;;;37.90;47.90;;;;;;1856370;76;21205;-77
2023/04/19 09:51:52;;;;;;;60.45;40.70;;;37.90;47.70;;;;;;1827420;77;21207;-74
2023/04/19 09:54:26;;;;;;;50.23;38.53;;;37.80;48.00;;;;;;1869613;76;21164;-74
2023/04/19 09:56:57;;;;;;;44.58;34.27;;;37.80;48.20;;;;;;1867712;75;21136;-74
2023/04/19 09:59:30;;;;;;;39.73;35.35;;;37.80;48.20;;;;;;1862472;76;21226;-74
2023/04/19 10:02:03;;;;;;;41.05;36.60;;;37.80;48.60;;;;;;1828013;77;21094;-75
2023/04/19 10:04:36;;;;;;;49.03;38.83;;;37.80;48.80;;;;;;1829105;77;21239;-75
2023/04/19 10:07:08;;;;;;;43.33;37.13;;;37.80;48.70;;;;;;1865880;76;21196;-74
2023/04/19 10:09:41;;;;;;;41.58;37.10;;;37.70;48.70;;;;;;1860234;76;21174;-76
2023/04/19 10:12:15;;;;;;;46.83;38.63;;;37.70;48.90;;;;;;1866127;75;21128;-77
2023/04/19 10:14:48;;;;;;;42.67;37.17;;;37.70;48.90;;;;;;1866677;76;21148;-76
2023/04/19 10:17:20;;;;;;;43.28;37.60;;;37.70;49.30;;;;;;1868129;75;21121;-76
2023/04/19 10:20:00;;;;;;;42.27;37.73;;;37.60;49.00;;;;;;1868967;75;21074;-76
2023/04/19 10:22:32;;;;;;;43.80;38.08;;;37.60;49.30;;;;;;1872768;75;21227;-75
2023/04/19 10:25:11;;;;;;;43.95;38.53;;;37.60;49.20;;;;;;1873649;76;21136;-74
2023/04/19 10:27:47;;;;;;;49.45;39.95;;;37.60;49.20;;;;;;1872006;75;21141;-74
2023/04/19 10:30:26;;;;;;;42.58;37.90;;;37.60;49.20;;;;;;1870770;75;21149;-76
2023/04/19 10:33:03;;;;;;;69.22;40.63;;;37.60;48.50;;;;;;1867339;75;21090;-74
2023/04/19 10:35:39;;;;;;;44.95;37.33;;;37.50;48.80;;;;;;1874377;75;21125;-75
2023/04/19 10:38:12;;;;;;;43.33;38.20;;;37.50;48.40;;;;;;1872734;75;21891;-74
2023/04/19 10:40:59;;;;;;;39.78;35.88;;;37.50;48.10;;;;;;1873663;75;21225;-72
2023/04/19 10:43:32;;;;;;;41.60;37.20;;;37.50;48.50;;;;;;1873772;75;21219;-73
2023/04/19 10:46:09;;;;;;;42.70;38.13;;;37.50;48.50;;;;;;1870220;76;21196;-73
2023/04/19 10:48:42;;;;;;;43.75;38.10;;;37.50;48.70;;;;;;1853142;76;21137;-73
2023/04/19 10:51:21;;;;;;;41.58;37.45;;;37.40;48.70;;;;;;1854756;76;21582;-74
2023/04/19 10:53:54;;;;;;;45.10;39.53;;;37.40;49.30;;;;;;1787776;80;21546;-73
2023/04/19 10:56:34;;;;;;;43.17;38.78;;;37.40;49.40;;;;;;1851938;77;21628;-73
2023/04/19 10:59:09;;;;;;;44.90;38.75;;;37.40;50.40;;;;;;1861108;76;21228;-75
2023/04/19 11:01:45;;;;;;;42.78;38.42;;;37.30;50.20;;;;;;1852339;76;21640;-83
2023/04/19 11:04:21;;;;;;;45.05;40.20;;;37.30;50.30;;;;;;1779546;79;21228;-80
2023/04/19 11:06:56;;;;;;;47.05;39.63;;;37.30;50.60;;;;;;1851831;76;21101;-83
2023/04/19 11:09:37;;;;;;;45.80;40.85;;;37.20;50.30;;;;;;1853936;76;21180;-82
2023/04/19 11:12:10;;;;;;;44.85;40.12;;;37.20;50.40;;;;;;1788141;79;21084;-83
2023/04/19 11:14:47;;;;;;;45.85;40.90;;;37.20;50.80;;;;;;1830907;77;21224;-82
2023/04/19 11:17:24;;;;;;;44.65;40.05;;;37.20;50.90;;;;;;1856684;77;21086;-82
2023/04/19 11:20:00;;;;;;;51.58;41.75;;;37.10;51.10;;;;;;1856624;76;21224;-79
2023/04/19 11:22:42;;;;;;;45.33;40.83;;;37.10;50.90;;;;;;1787799;79;21175;-81
2023/04/19 11:25:21;;;;;;;45.67;40.92;;;37.00;51.00;;;;;;1856637;76;21222;-82
2023/04/19 11:27:54;;;;;;;52.78;41.88;;;37.00;51.10;;;;;;1859643;77;21569;-81
2023/04/19 11:30:32;;;;;;;46.60;41.73;;;37.00;51.20;;;;;;1787049;79;21163;-81
2023/04/19 11:33:03;;;;;;;48.52;41.70;;;37.00;51.10;;;;;;1845081;76;21105;-84
2023/04/19 11:35:35;;;;;;;48.23;43.00;;;37.00;51.20;;;;;;1851007;76;21224;-82
2023/04/19 11:38:10;;;;;;;45.80;40.95;;;36.90;51.10;;;;;;1776325;80;21215;-85
2023/04/19 11:40:42;;;;;;;46.28;41.42;;;36.90;51.50;;;;;;1845618;76;21581;-84
2023/04/19 11:43:13;;;;;;;48.48;42.38;;;36.80;51.50;;;;;;1859344;76;21137;-82
2023/04/19 11:45:45;;;;;;;47.83;41.25;;;36.80;51.30;;;;;;1788766;79;21203;-83
2023/04/19 11:48:17;;;;;;;46.25;41.48;;;36.80;51.30;;;;;;1847101;76;21149;-83
2023/04/19 11:50:48;;;;;;;48.60;43.55;;;36.80;51.40;;;;;;1858228;76;21137;-83
2023/04/19 11:53:21;;;;;;;48.87;43.00;;;36.80;51.40;;;;;;1789105;79;21140;-82
2023/04/19 11:55:55;;;;;;;47.35;42.65;;;36.70;51.50;;;;;;1838736;76;21196;-83
2023/04/19 11:58:35;;;;;;;45.20;40.80;;;36.70;51.50;;;;;;1847365;76;21066;-82
2023/04/19 12:01:11;;;;;;;50.17;44.77;;;36.70;51.60;;;;;;1815732;77;21095;-83
2023/04/19 12:03:42;;;;;;;;;;;36.70;51.70;;;;;;1844963;76;21141;-83
2023/04/19 12:06:25;;;;;;;48.15;43.17;;;36.60;51.60;;;;;;1815659;77;20438;-82
2023/04/19 12:08:57;;;;;;;50.00;44.65;;;36.60;51.60;;;;;;1849468;76;21157;-80
2023/04/19 12:11:45;;;;;;;52.13;44.27;;;36.60;51.70;;;;;;1834146;76;21176;-82
2023/04/19 12:14:25;;;;;;;49.10;43.75;;;36.60;51.80;;;;;;1783696;79;21143;-82
2023/04/19 12:17:15;;;;;;;48.35;43.10;;;36.60;51.90;;;;;;1853049;76;21158;-81
2023/04/19 12:19:48;;;;;;;48.15;42.98;;;36.50;52.00;;;;;;1849220;76;21196;-81
2023/04/19 12:22:20;;;;;;;50.08;44.25;;;36.50;52.00;;;;;;1857131;76;21083;-81
2023/04/19 12:24:55;;;;;;;48.25;43.28;;;36.50;52.20;;;;;;1781673;79;21179;-82
2023/04/19 12:27:27;;;;;;;49.95;43.00;;;36.50;52.30;;;;;;1834197;76;21118;-81
2023/04/19 12:29:58;;;;;;;47.50;42.70;;;36.40;52.30;;;;;;1850649;77;21118;-82
2023/04/19 12:32:30;;;;;;;49.70;44.05;;;36.40;52.40;;;;;;1852859;77;21141;-83
2023/04/19 12:35:01;;;;;;;47.50;42.30;;;36.40;52.70;;;;;;1783539;79;21228;-83
2023/04/19 12:37:32;;;;;;;50.90;43.68;;;36.30;52.60;;;;;;1826792;78;21199;-81
2023/04/19 12:40:04;;;;;;;49.48;44.30;;;36.30;52.90;;;;;;1842774;76;21055;-83
2023/04/19 12:42:36;;;;;;;48.33;43.02;;;36.30;53.00;;;;;;1858984;76;21660;-83
2023/04/19 12:45:09;;;;;;;47.83;42.73;;;36.30;53.00;;;;;;1780547;79;21123;-84
2023/04/19 12:47:40;;;;;;;47.38;42.23;;;36.20;53.00;;;;;;1812301;77;21565;-83
2023/04/19 12:50:14;;;;;;;47.48;42.45;;;36.30;53.20;;;;;;1845904;76;21643;-83
2023/04/19 12:52:45;;;;;;;48.33;41.30;;;36.20;53.20;;;;;;1847555;77;21361;-83
2023/04/19 12:55:17;;;;;;;48.30;41.95;;;36.20;53.30;;;;;;1777951;79;21205;-84
2023/04/19 12:57:48;;;;;;;46.33;41.40;;;36.20;53.50;;;;;;1849740;77;21152;-83